createdAt,value
2017-11-21T00:00:47.880Z,6.85
2017-11-21T00:01:50.673Z,6.84
2017-11-21T00:02:53.399Z,6.82
2017-11-21T00:03:56.194Z,6.80
2017-11-21T00:04:59.377Z,6.83
2017-11-21T00:06:02.112Z,6.86
2017-11-21T00:07:04.893Z,6.89
2017-11-21T00:08:07.548Z,6.86
2017-11-21T00:09:10.545Z,6.82
2017-11-21T00:10:13.149Z,6.79
2017-11-21T00:11:16.257Z,6.82
2017-11-21T00:12:19.055Z,6.89
2017-11-21T00:13:21.941Z,6.93
2017-11-21T00:14:24.819Z,6.94
2017-11-21T00:15:27.612Z,6.94
2017-11-21T00:16:30.410Z,6.87
2017-11-21T00:17:33.804Z,6.95
2017-11-21T00:18:36.608Z,6.97
2017-11-21T00:19:39.422Z,6.93
2017-11-21T00:20:42.287Z,6.94
2017-11-21T00:21:45.160Z,7.01
2017-11-21T00:22:47.903Z,6.96
2017-11-21T00:23:51.153Z,7.04
2017-11-21T00:24:53.912Z,7.02
2017-11-21T00:25:56.731Z,7.02
2017-11-21T00:26:59.507Z,7.03
2017-11-21T00:28:02.325Z,6.99
2017-11-21T00:29:05.104Z,6.99
2017-11-21T00:30:08.408Z,6.98
2017-11-21T00:31:11.153Z,6.98
2017-11-21T00:32:13.930Z,6.97
2017-11-21T00:33:16.694Z,7.05
2017-11-21T00:34:19.492Z,7.04
2017-11-21T00:35:22.124Z,7.03
2017-11-21T00:36:25.071Z,7.08
2017-11-21T00:37:27.586Z,7.04
2017-11-21T00:38:30.512Z,7.07
2017-11-21T00:39:33.325Z,7.12
2017-11-21T00:40:36.152Z,7.12
2017-11-21T00:41:38.915Z,7.12
2017-11-21T00:42:42.699Z,7.18
2017-11-21T00:43:45.457Z,7.16
2017-11-21T00:44:48.173Z,7.14
2017-11-21T00:45:50.893Z,7.13
2017-11-21T00:46:53.416Z,7.11
2017-11-21T00:47:56.155Z,7.10
2017-11-21T00:48:59.152Z,7.13
2017-11-21T00:50:01.730Z,7.14
2017-11-21T00:51:04.268Z,7.12
2017-11-21T00:52:07.035Z,7.11
2017-11-21T00:53:09.857Z,7.11
2017-11-21T00:54:12.714Z,7.12
2017-11-21T00:55:15.808Z,7.14
2017-11-21T00:56:18.560Z,7.12
2017-11-21T00:57:21.308Z,7.18
2017-11-21T00:58:24.080Z,7.24
2017-11-21T00:59:26.864Z,7.18
2017-11-21T01:00:29.619Z,7.16
2017-11-21T01:01:32.799Z,7.24
2017-11-21T01:02:35.425Z,7.27
2017-11-21T01:03:38.082Z,7.23
2017-11-21T01:04:40.699Z,7.22
2017-11-21T01:05:43.481Z,7.23
2017-11-21T01:06:46.288Z,7.26
2017-11-21T01:07:49.460Z,7.34
2017-11-21T01:08:52.272Z,7.31
2017-11-21T01:09:55.067Z,7.40
2017-11-21T01:10:57.821Z,7.47
2017-11-21T01:12:00.673Z,7.42
2017-11-21T01:13:03.448Z,7.40
2017-11-21T01:14:06.695Z,7.42
2017-11-21T01:15:09.732Z,7.42
2017-11-21T01:16:12.496Z,7.42
2017-11-21T01:17:15.394Z,7.41
2017-11-21T01:18:18.161Z,7.40
2017-11-21T01:19:21.086Z,7.45
2017-11-21T01:20:24.099Z,7.46
2017-11-21T01:21:26.873Z,7.53
2017-11-21T01:22:29.661Z,7.56
2017-11-21T01:23:32.355Z,7.52
2017-11-21T01:24:35.089Z,7.56
2017-11-21T01:25:37.727Z,7.55
2017-11-21T01:26:40.714Z,7.54
2017-11-21T01:27:43.257Z,7.56
2017-11-21T01:28:45.797Z,7.55
2017-11-21T01:29:48.328Z,7.64
2017-11-21T01:30:50.839Z,7.65
2017-11-21T01:31:53.432Z,7.60
2017-11-21T01:32:56.333Z,7.66
2017-11-21T01:33:58.919Z,7.62
2017-11-21T01:35:01.472Z,7.63
2017-11-21T01:36:04.271Z,7.61
2017-11-21T01:37:07.042Z,7.69
2017-11-21T01:38:10.061Z,7.66
2017-11-21T01:39:13.024Z,7.69
2017-11-21T01:40:15.769Z,7.73
2017-11-21T01:41:18.537Z,7.75
2017-11-21T01:42:21.315Z,7.81
2017-11-21T01:43:24.115Z,7.80
2017-11-21T01:44:26.736Z,7.76
2017-11-21T01:45:29.836Z,7.75
2017-11-21T01:46:32.609Z,7.76
2017-11-21T01:47:35.426Z,7.78
2017-11-21T01:48:38.177Z,7.79
2017-11-21T01:49:41.000Z,7.80
2017-11-21T01:50:43.796Z,7.83
2017-11-21T01:51:47.080Z,7.82
2017-11-21T01:52:49.857Z,7.90
2017-11-21T01:53:52.672Z,7.86
2017-11-21T01:54:55.441Z,7.85
2017-11-21T01:55:58.203Z,7.82
2017-11-21T01:57:00.984Z,7.83
2017-11-21T01:58:04.079Z,7.89
2017-11-21T01:59:06.873Z,7.91
2017-11-21T02:00:09.593Z,7.88
2017-11-21T02:01:12.355Z,7.90
2017-11-21T02:02:15.146Z,7.92
2017-11-21T02:03:17.985Z,7.93
2017-11-21T02:04:21.155Z,7.92
2017-11-21T02:05:23.936Z,8.00
2017-11-21T02:06:26.674Z,7.97
2017-11-21T02:07:29.487Z,7.94
2017-11-21T02:08:32.287Z,7.91
2017-11-21T02:09:35.211Z,7.96
2017-11-21T02:10:38.358Z,7.90
2017-11-21T02:11:41.124Z,7.98
2017-11-21T02:12:43.887Z,7.96
2017-11-21T02:13:46.649Z,7.95
2017-11-21T02:14:49.437Z,8.01
2017-11-21T02:15:52.308Z,8.00
2017-11-21T02:16:55.532Z,8.01
2017-11-21T02:17:58.324Z,8.00
2017-11-21T02:19:01.120Z,7.99
2017-11-21T02:20:03.935Z,8.02
2017-11-21T02:21:06.759Z,8.00
2017-11-21T02:22:09.532Z,8.05
2017-11-21T02:23:12.619Z,7.99
2017-11-21T02:24:15.368Z,7.98
2017-11-21T02:25:18.184Z,7.99
2017-11-21T02:26:21.003Z,7.96
2017-11-21T02:27:23.816Z,7.95
2017-11-21T02:28:26.563Z,7.94
2017-11-21T02:29:29.705Z,8.02
2017-11-21T02:30:32.397Z,8.06
2017-11-21T02:31:35.483Z,8.04
2017-11-21T02:32:38.101Z,8.04
2017-11-21T02:33:40.735Z,8.05
2017-11-21T02:34:43.389Z,8.03
2017-11-21T02:35:46.355Z,8.05
2017-11-21T02:36:49.004Z,8.01
2017-11-21T02:37:51.644Z,8.07
2017-11-21T02:38:54.270Z,8.06
2017-11-21T02:39:56.870Z,8.04
2017-11-21T02:40:59.474Z,8.05
2017-11-21T02:42:02.662Z,8.09
2017-11-21T02:43:05.306Z,8.10
2017-11-21T02:44:07.928Z,8.10
2017-11-21T02:45:10.595Z,8.07
2017-11-21T02:46:13.241Z,8.08
2017-11-21T02:47:15.884Z,8.07
2017-11-21T02:48:19.056Z,8.08
2017-11-21T02:49:21.690Z,8.08
2017-11-21T02:50:24.309Z,8.06
2017-11-21T02:51:26.894Z,8.04
2017-11-21T02:52:29.480Z,8.04
2017-11-21T02:53:32.058Z,8.04
2017-11-21T02:54:35.097Z,8.04
2017-11-21T02:55:38.037Z,8.06
2017-11-21T02:56:40.675Z,8.06
2017-11-21T02:57:43.348Z,8.05
2017-11-21T02:58:45.941Z,8.09
2017-11-21T02:59:48.617Z,8.12
2017-11-21T03:00:51.643Z,8.08
2017-11-21T03:01:54.262Z,8.06
2017-11-21T03:02:56.862Z,8.08
2017-11-21T03:03:59.541Z,8.08
2017-11-21T03:05:02.165Z,8.09
2017-11-21T03:06:04.826Z,8.10
2017-11-21T03:07:07.833Z,8.08
2017-11-21T03:08:10.475Z,8.06
2017-11-21T03:09:13.103Z,8.14
2017-11-21T03:10:15.742Z,8.10
2017-11-21T03:11:18.353Z,8.06
2017-11-21T03:12:20.995Z,8.06
2017-11-21T03:13:24.062Z,8.04
2017-11-21T03:14:26.703Z,8.07
2017-11-21T03:15:29.299Z,8.03
2017-11-21T03:16:31.913Z,8.02
2017-11-21T03:17:34.537Z,8.03
2017-11-21T03:18:37.203Z,8.05
2017-11-21T03:19:40.271Z,8.04
2017-11-21T03:20:43.005Z,8.07
2017-11-21T03:21:45.643Z,8.08
2017-11-21T03:22:48.289Z,8.08
2017-11-21T03:23:50.909Z,8.07
2017-11-21T03:24:53.574Z,8.08
2017-11-21T03:25:56.549Z,8.13
2017-11-21T03:26:59.360Z,8.18
2017-11-21T03:28:02.025Z,8.15
2017-11-21T03:29:04.679Z,8.16
2017-11-21T03:30:07.302Z,8.15
2017-11-21T03:31:10.011Z,8.14
2017-11-21T03:32:13.208Z,8.11
2017-11-21T03:33:15.783Z,8.09
2017-11-21T03:34:18.356Z,8.11
2017-11-21T03:35:20.899Z,8.11
2017-11-21T03:36:24.167Z,8.10
2017-11-21T03:37:26.719Z,8.09
2017-11-21T03:38:29.770Z,8.09
2017-11-21T03:39:32.418Z,8.06
2017-11-21T03:40:35.066Z,8.10
2017-11-21T03:41:37.691Z,8.08
2017-11-21T03:42:40.313Z,8.09
2017-11-21T03:43:42.945Z,8.10
2017-11-21T03:44:45.993Z,8.14
2017-11-21T03:45:48.621Z,8.13
2017-11-21T03:46:51.232Z,8.13
2017-11-21T03:47:53.854Z,8.13
2017-11-21T03:48:56.501Z,8.17
2017-11-21T03:49:59.109Z,8.15
2017-11-21T03:51:02.241Z,8.18
2017-11-21T03:52:05.113Z,8.19
2017-11-21T03:53:07.726Z,8.23
2017-11-21T03:54:10.380Z,8.22
2017-11-21T03:55:12.978Z,8.22
2017-11-21T03:56:15.712Z,8.18
2017-11-21T03:57:18.794Z,8.19
2017-11-21T03:58:21.447Z,8.19
2017-11-21T03:59:24.066Z,8.18
2017-11-21T04:00:26.666Z,8.19
2017-11-21T04:01:29.311Z,8.23
2017-11-21T04:02:31.996Z,8.20
2017-11-21T04:03:34.997Z,8.22
2017-11-21T04:04:37.610Z,8.21
2017-11-21T04:05:40.265Z,8.20
2017-11-21T04:06:42.946Z,8.22
2017-11-21T04:07:45.591Z,8.27
2017-11-21T04:08:48.206Z,8.25
2017-11-21T04:09:51.238Z,8.25
2017-11-21T04:10:53.873Z,8.26
2017-11-21T04:11:56.484Z,8.30
2017-11-21T04:12:59.126Z,8.29
2017-11-21T04:14:01.766Z,8.30
2017-11-21T04:15:04.341Z,8.30
2017-11-21T04:16:07.441Z,8.33
2017-11-21T04:17:10.050Z,8.36
2017-11-21T04:18:12.753Z,8.32
2017-11-21T04:19:15.400Z,8.37
2017-11-21T04:20:18.087Z,8.38
2017-11-21T04:21:20.745Z,8.39
2017-11-21T04:22:23.916Z,8.38
2017-11-21T04:23:26.561Z,8.35
2017-11-21T04:24:29.176Z,8.33
2017-11-21T04:25:31.828Z,8.30
2017-11-21T04:26:34.434Z,8.31
2017-11-21T04:27:37.077Z,8.36
2017-11-21T04:28:40.068Z,8.37
2017-11-21T04:29:42.726Z,8.34
2017-11-21T04:30:45.366Z,8.41
2017-11-21T04:31:47.981Z,8.39
2017-11-21T04:32:50.682Z,8.38
2017-11-21T04:33:53.330Z,8.37
2017-11-21T04:34:56.337Z,8.35
2017-11-21T04:35:58.971Z,8.37
2017-11-21T04:37:01.591Z,8.43
2017-11-21T04:38:04.276Z,8.42
2017-11-21T04:39:06.894Z,8.42
2017-11-21T04:40:09.530Z,8.42
2017-11-21T04:41:12.495Z,8.47
2017-11-21T04:42:15.138Z,8.43
2017-11-21T04:43:17.776Z,8.40
2017-11-21T04:44:20.423Z,8.45
2017-11-21T04:45:23.038Z,8.46
2017-11-21T04:46:25.702Z,8.41
2017-11-21T04:47:28.227Z,8.47
2017-11-21T04:48:30.773Z,8.44
2017-11-21T04:49:33.399Z,8.54
2017-11-21T04:50:36.059Z,8.53
2017-11-21T04:51:38.726Z,8.50
2017-11-21T04:52:41.706Z,8.49
2017-11-21T04:53:44.339Z,8.48
2017-11-21T04:54:46.999Z,8.50
2017-11-21T04:55:49.619Z,8.48
2017-11-21T04:56:52.244Z,8.47
2017-11-21T04:57:54.866Z,8.48
2017-11-21T04:58:58.789Z,8.47
2017-11-21T05:00:01.423Z,8.45
2017-11-21T05:15:11.925Z,8.57
2017-11-21T05:16:14.567Z,8.63
2017-11-21T05:17:17.247Z,8.60
2017-11-21T05:18:19.914Z,8.57
2017-11-21T05:19:22.558Z,8.55
2017-11-21T05:20:25.650Z,8.57
2017-11-21T05:21:29.035Z,8.58
2017-11-21T05:22:31.685Z,8.59
2017-11-21T05:23:34.304Z,8.58
2017-11-21T05:24:37.070Z,8.62
2017-11-21T05:25:39.714Z,8.60
2017-11-21T05:26:42.699Z,8.65
2017-11-21T05:27:45.336Z,8.64
2017-11-21T05:28:47.983Z,8.61
2017-11-21T05:29:50.592Z,8.67
2017-11-21T05:30:53.231Z,8.65
2017-11-21T05:31:55.850Z,8.67
2017-11-21T05:32:59.018Z,8.72
2017-11-21T05:34:01.655Z,8.73
2017-11-21T05:35:04.299Z,8.69
2017-11-21T05:36:06.930Z,8.69
2017-11-21T05:37:09.616Z,8.71
2017-11-21T05:38:12.217Z,8.67
2017-11-21T05:39:15.306Z,8.67
2017-11-21T05:40:17.926Z,8.68
2017-11-21T05:41:20.564Z,8.66
2017-11-21T05:42:23.185Z,8.69
2017-11-21T05:43:26.802Z,8.62
2017-11-21T05:44:29.458Z,8.62
2017-11-21T05:45:32.734Z,8.60
2017-11-21T05:46:35.391Z,8.60
2017-11-21T05:47:38.100Z,8.65
2017-11-21T05:48:40.727Z,8.63
2017-11-21T05:49:43.375Z,8.63
2017-11-21T05:50:46.001Z,8.69
2017-11-21T05:51:48.944Z,8.73
2017-11-21T05:52:51.500Z,8.72
2017-11-21T05:53:54.182Z,8.73
2017-11-21T05:54:56.866Z,8.73
2017-11-21T05:55:59.556Z,8.72
2017-11-21T05:57:02.223Z,8.69
2017-11-21T05:58:05.185Z,8.68
2017-11-21T05:59:07.866Z,8.69
2017-11-21T06:00:10.481Z,8.68
2017-11-21T06:01:13.113Z,8.68
2017-11-21T06:02:15.740Z,8.69
2017-11-21T06:03:18.374Z,8.69
2017-11-21T06:04:21.409Z,8.66
2017-11-21T06:05:24.017Z,8.66
2017-11-21T06:06:26.610Z,8.63
2017-11-21T06:07:29.196Z,8.66
2017-11-21T06:08:31.770Z,8.65
2017-11-21T06:09:34.383Z,8.64
2017-11-21T06:10:37.381Z,8.63
2017-11-21T06:11:39.958Z,8.62
2017-11-21T06:12:42.540Z,8.63
2017-11-21T06:13:45.182Z,8.62
2017-11-21T06:14:47.785Z,8.63
2017-11-21T06:15:50.422Z,8.63
2017-11-21T06:16:53.415Z,8.60
2017-11-21T06:17:56.034Z,8.60
2017-11-21T06:18:58.642Z,8.59
2017-11-21T06:20:01.287Z,8.59
2017-11-21T06:21:03.908Z,8.60
2017-11-21T06:22:06.583Z,8.59
2017-11-21T06:23:09.706Z,8.60
2017-11-21T06:25:31.647Z,8.60
2017-11-21T06:26:34.292Z,8.59
2017-11-21T06:27:36.940Z,8.58
2017-11-21T06:28:39.561Z,8.58
2017-11-21T06:29:42.254Z,8.60
2017-11-21T06:30:44.924Z,8.60
2017-11-21T06:31:48.000Z,8.60
2017-11-21T06:32:50.639Z,8.57
2017-11-21T06:33:53.291Z,8.59
2017-11-21T06:34:55.920Z,8.59
2017-11-21T06:35:58.590Z,8.59
2017-11-21T06:37:01.234Z,8.60
2017-11-21T06:38:03.887Z,8.58
2017-11-21T06:39:06.507Z,8.57
2017-11-21T06:40:09.203Z,8.56
2017-11-21T06:41:11.833Z,8.56
2017-11-21T06:42:14.506Z,8.54
2017-11-21T06:43:17.146Z,8.54
2017-11-21T06:44:19.878Z,8.54
2017-11-21T06:45:22.768Z,8.56
2017-11-21T06:46:25.468Z,8.55
2017-11-21T06:47:28.266Z,8.55
2017-11-21T06:48:30.975Z,8.57
2017-11-21T06:49:33.674Z,8.53
2017-11-21T06:50:36.337Z,8.54
2017-11-21T06:51:39.037Z,8.53
2017-11-21T06:52:42.331Z,8.54
2017-11-21T06:53:45.023Z,8.55
2017-11-21T06:54:47.995Z,8.55
2017-11-21T06:55:50.628Z,8.54
2017-11-21T06:56:53.289Z,8.54
2017-11-21T06:57:55.957Z,8.53
2017-11-21T06:58:58.646Z,8.52
2017-11-21T07:00:01.347Z,8.52
2017-11-21T07:01:04.560Z,8.51
2017-11-21T07:02:07.261Z,8.51
2017-11-21T07:03:09.926Z,8.51
2017-11-21T07:04:12.630Z,8.52
2017-11-21T07:05:15.293Z,8.53
2017-11-21T07:06:17.945Z,8.53
2017-11-21T07:07:21.001Z,8.53
2017-11-21T07:08:23.628Z,8.54
2017-11-21T07:09:26.393Z,8.54
2017-11-21T07:10:29.048Z,8.53
2017-11-21T07:11:31.716Z,8.56
2017-11-21T07:12:34.356Z,8.56
2017-11-21T07:13:37.430Z,8.54
2017-11-21T07:14:40.132Z,8.53
2017-11-21T07:15:42.781Z,8.52
2017-11-21T07:16:45.476Z,8.52
2017-11-21T07:17:48.137Z,8.52
2017-11-21T07:18:51.818Z,8.51
2017-11-21T07:19:54.874Z,8.52
2017-11-21T07:20:57.546Z,8.51
2017-11-21T07:22:00.245Z,8.51
2017-11-21T07:23:02.925Z,8.50
2017-11-21T07:24:05.546Z,8.50
2017-11-21T07:25:08.173Z,8.49
2017-11-21T07:26:11.249Z,8.50
2017-11-21T07:27:14.027Z,8.50
2017-11-21T07:28:16.680Z,8.48
2017-11-21T07:29:19.299Z,8.47
2017-11-21T07:30:21.927Z,8.47
2017-11-21T07:31:24.620Z,8.45
2017-11-21T07:32:27.739Z,8.45
2017-11-21T07:33:30.379Z,8.45
2017-11-21T07:34:33.041Z,8.44
2017-11-21T07:35:35.698Z,8.43
2017-11-21T07:36:38.349Z,8.42
2017-11-21T07:37:41.038Z,8.43
2017-11-21T07:38:44.760Z,8.43
2017-11-21T07:39:47.365Z,8.41
2017-11-21T07:40:49.919Z,8.41
2017-11-21T07:41:52.565Z,8.41
2017-11-21T07:42:55.264Z,8.43
2017-11-21T07:43:57.915Z,8.41
2017-11-21T07:45:01.007Z,8.39
2017-11-21T07:46:03.677Z,8.39
2017-11-21T07:47:06.378Z,8.40
2017-11-21T07:48:09.278Z,8.39
2017-11-21T07:49:12.296Z,8.38
2017-11-21T07:50:14.962Z,8.37
2017-11-21T07:51:18.078Z,8.37
2017-11-21T07:52:20.740Z,8.37
2017-11-21T07:53:23.388Z,8.37
2017-11-21T07:54:26.028Z,8.35
2017-11-21T07:55:28.677Z,8.36
2017-11-21T07:56:31.225Z,8.35
2017-11-21T07:57:34.029Z,8.37
2017-11-21T07:58:36.709Z,8.36
2017-11-21T07:59:39.387Z,8.34
2017-11-21T08:00:42.028Z,8.35
2017-11-21T08:01:44.732Z,8.34
2017-11-21T08:02:47.345Z,8.34
2017-11-21T08:03:50.473Z,8.35
2017-11-21T08:04:53.418Z,8.35
2017-11-21T08:05:56.173Z,8.35
2017-11-21T08:06:58.928Z,8.35
2017-11-21T08:08:01.764Z,8.36
2017-11-21T08:09:04.630Z,8.39
2017-11-21T08:10:08.592Z,8.37
2017-11-21T08:11:11.372Z,8.38
2017-11-21T08:12:14.329Z,8.38
2017-11-21T08:13:17.646Z,8.37
2017-11-21T08:14:20.453Z,8.38
2017-11-21T08:15:23.149Z,8.38
2017-11-21T08:16:26.234Z,8.38
2017-11-21T08:17:29.453Z,8.38
2017-11-21T08:18:32.253Z,8.39
2017-11-21T08:19:35.062Z,8.38
2017-11-21T08:20:37.690Z,8.37
2017-11-21T08:21:40.252Z,8.38
2017-11-21T08:22:43.257Z,8.37
2017-11-21T08:23:46.032Z,8.37
2017-11-21T08:24:48.796Z,8.38
2017-11-21T08:25:51.480Z,8.39
2017-11-21T08:26:54.273Z,8.42
2017-11-21T08:27:57.076Z,8.42
2017-11-21T08:29:00.166Z,8.39
2017-11-21T08:30:03.760Z,8.39
2017-11-21T08:31:06.508Z,8.40
2017-11-21T08:32:10.412Z,8.41
2017-11-21T08:33:13.218Z,8.40
2017-11-21T08:34:16.051Z,8.42
2017-11-21T08:35:19.100Z,8.43
2017-11-21T08:36:21.804Z,8.43
2017-11-21T08:37:24.622Z,8.42
2017-11-21T08:38:27.405Z,8.45
2017-11-21T08:39:30.344Z,8.45
2017-11-21T08:40:33.241Z,8.46
2017-11-21T08:41:36.556Z,8.48
2017-11-21T08:42:39.405Z,8.47
2017-11-21T08:43:42.184Z,8.50
2017-11-21T08:44:44.960Z,8.53
2017-11-21T08:45:47.763Z,8.51
2017-11-21T08:46:50.492Z,8.47
2017-11-21T08:47:53.585Z,8.51
2017-11-21T08:48:56.551Z,8.47
2017-11-21T08:49:59.375Z,8.49
2017-11-21T08:51:03.054Z,8.46
2017-11-21T08:52:05.975Z,8.47
2017-11-21T08:53:08.869Z,8.49
2017-11-21T08:54:11.693Z,8.48
2017-11-21T08:55:14.555Z,8.49
2017-11-21T08:56:17.352Z,8.48
2017-11-21T08:57:19.986Z,8.49
2017-11-21T08:58:22.628Z,8.52
2017-11-21T08:59:25.561Z,8.51
2017-11-21T09:00:28.294Z,8.51
2017-11-21T09:01:30.946Z,8.53
2017-11-21T09:02:33.629Z,8.55
2017-11-21T09:03:36.527Z,8.57
2017-11-21T09:04:39.240Z,8.57
2017-11-21T09:05:42.494Z,8.58
2017-11-21T09:06:45.275Z,8.68
2017-11-21T09:07:47.937Z,8.72
2017-11-21T09:08:50.555Z,8.74
2017-11-21T09:09:53.128Z,8.85
2017-11-21T09:10:55.728Z,8.80
2017-11-21T09:11:58.631Z,8.84
2017-11-21T09:13:01.202Z,8.80
2017-11-21T09:14:03.821Z,8.79
2017-11-21T09:15:06.474Z,8.85
2017-11-21T09:16:09.020Z,8.76
2017-11-21T09:17:12.161Z,8.74
2017-11-21T09:18:15.357Z,8.74
2017-11-21T09:19:17.878Z,8.75
2017-11-21T09:20:21.100Z,8.71
2017-11-21T09:21:23.709Z,8.70
2017-11-21T09:22:26.280Z,8.70
2017-11-21T09:23:28.831Z,8.78
2017-11-21T09:24:31.746Z,8.80
2017-11-21T09:25:34.271Z,8.74
2017-11-21T09:26:36.823Z,8.84
2017-11-21T09:27:39.439Z,8.85
2017-11-21T09:28:41.912Z,8.86
2017-11-21T09:29:44.375Z,8.86
2017-11-21T09:30:47.932Z,8.84
2017-11-21T09:31:50.383Z,8.89
2017-11-21T09:32:53.121Z,8.92
2017-11-21T09:33:55.598Z,8.87
2017-11-21T09:34:58.116Z,8.79
2017-11-21T09:36:00.630Z,8.80
2017-11-21T09:37:03.845Z,8.83
2017-11-21T09:38:06.369Z,8.84
2017-11-21T09:39:08.901Z,8.86
2017-11-21T09:40:11.498Z,8.87
2017-11-21T09:41:14.161Z,8.88
2017-11-21T09:42:16.745Z,8.89
2017-11-21T09:43:19.315Z,8.89
2017-11-21T09:44:21.921Z,8.92
2017-11-21T09:45:24.462Z,8.94
2017-11-21T09:46:27.088Z,8.92
2017-11-21T09:47:29.737Z,8.90
2017-11-21T09:48:32.354Z,8.88
2017-11-21T09:49:34.894Z,8.91
2017-11-21T09:50:37.577Z,8.93
2017-11-21T09:51:40.168Z,8.95
2017-11-21T09:52:42.809Z,8.88
2017-11-21T09:53:45.454Z,8.87
2017-11-21T09:54:48.024Z,8.88
2017-11-21T09:55:50.600Z,8.86
2017-11-21T09:56:53.359Z,8.86
2017-11-21T09:57:55.905Z,8.90
2017-11-21T09:58:58.789Z,8.89
2017-11-21T10:00:01.382Z,8.94
2017-11-21T10:01:03.991Z,8.89
2017-11-21T10:02:06.598Z,8.88
2017-11-21T10:03:09.241Z,8.91
2017-11-21T10:04:11.940Z,8.92
2017-11-21T10:05:14.995Z,8.89
2017-11-21T10:06:17.674Z,8.93
2017-11-21T10:07:20.467Z,8.95
2017-11-21T10:08:23.096Z,8.93
2017-11-21T10:09:25.753Z,8.89
2017-11-21T10:10:28.413Z,8.86
2017-11-21T10:11:31.427Z,8.86
2017-11-21T10:12:34.105Z,8.92
2017-11-21T10:13:36.712Z,8.90
2017-11-21T10:14:39.414Z,8.93
2017-11-21T10:15:41.977Z,8.91
2017-11-21T10:16:44.635Z,8.94
2017-11-21T10:17:47.724Z,9.01
2017-11-21T10:18:50.368Z,9.04
2017-11-21T10:19:53.106Z,8.99
2017-11-21T10:20:55.671Z,8.95
2017-11-21T10:21:58.306Z,8.99
2017-11-21T10:23:01.113Z,8.93
2017-11-21T10:24:04.189Z,8.97
2017-11-21T10:25:06.878Z,8.91
2017-11-21T10:26:09.511Z,8.88
2017-11-21T10:27:12.648Z,8.88
2017-11-21T10:28:15.352Z,8.90
2017-11-21T10:29:17.980Z,8.94
2017-11-21T10:30:20.951Z,8.95
2017-11-21T10:32:37.531Z,8.93
2017-11-21T10:33:40.263Z,8.91
2017-11-21T10:34:43.095Z,8.91
2017-11-21T10:35:45.699Z,8.91
2017-11-21T10:36:48.315Z,8.93
2017-11-21T10:37:50.858Z,8.97
2017-11-21T10:38:53.879Z,8.99
2017-11-21T10:39:56.539Z,8.98
2017-11-21T10:40:59.196Z,8.99
2017-11-21T10:42:02.218Z,9.04
2017-11-21T10:43:04.922Z,9.00
2017-11-21T10:44:07.551Z,8.97
2017-11-21T10:45:10.222Z,9.00
2017-11-21T10:46:12.865Z,9.02
2017-11-21T10:47:15.673Z,9.01
2017-11-21T10:48:18.369Z,8.98
2017-11-21T10:49:21.014Z,9.02
2017-11-21T10:50:23.709Z,9.10
2017-11-21T10:51:26.830Z,9.02
2017-11-21T10:52:29.534Z,9.04
2017-11-21T10:53:32.193Z,9.06
2017-11-21T10:54:34.863Z,9.02
2017-11-21T10:55:38.205Z,9.00
2017-11-21T10:56:41.089Z,9.05
2017-11-21T10:57:44.324Z,9.08
2017-11-21T10:58:47.043Z,9.03
2017-11-21T11:15:23.890Z,9.16
2017-11-21T11:16:26.543Z,9.16
2017-11-21T11:17:29.296Z,9.16
2017-11-21T11:18:32.206Z,9.23
2017-11-21T11:19:34.931Z,9.19
2017-11-21T11:20:38.083Z,9.18
2017-11-21T11:21:40.767Z,9.20
2017-11-21T11:22:43.651Z,9.21
2017-11-21T11:23:46.336Z,9.20
2017-11-21T11:24:49.021Z,9.24
2017-11-21T11:25:51.838Z,9.26
2017-11-21T11:26:54.851Z,9.27
2017-11-21T11:27:57.469Z,9.25
2017-11-21T11:29:00.158Z,9.25
2017-11-21T11:30:02.780Z,9.25
2017-11-21T11:31:05.502Z,9.28
2017-11-21T11:32:08.170Z,9.27
2017-11-21T11:33:11.414Z,9.25
2017-11-21T11:34:14.135Z,9.21
2017-11-21T11:35:16.795Z,9.30
2017-11-21T11:36:19.515Z,9.23
2017-11-21T11:37:22.147Z,9.22
2017-11-21T11:38:24.899Z,9.14
2017-11-21T11:39:27.881Z,9.23
2017-11-21T11:40:30.559Z,9.19
2017-11-21T11:41:33.195Z,9.22
2017-11-21T11:42:35.796Z,9.17
2017-11-21T11:43:38.715Z,9.20
2017-11-21T11:44:41.436Z,9.19
2017-11-21T11:45:44.626Z,9.21
2017-11-21T11:46:47.330Z,9.26
2017-11-21T11:47:49.976Z,9.22
2017-11-21T11:48:52.660Z,9.25
2017-11-21T11:49:55.311Z,9.24
2017-11-21T11:50:57.996Z,9.27
2017-11-21T11:52:00.653Z,9.24
2017-11-21T11:53:03.625Z,9.20
2017-11-21T11:54:06.278Z,9.22
2017-11-21T11:55:09.335Z,9.23
2017-11-21T11:56:11.978Z,9.23
2017-11-21T11:57:16.780Z,9.26
2017-11-21T11:58:19.479Z,9.25
2017-11-21T11:59:22.130Z,9.28
2017-11-21T12:00:24.795Z,9.29
2017-11-21T12:01:27.628Z,9.27
2017-11-21T12:02:30.312Z,9.29
2017-11-21T12:03:33.449Z,9.31
2017-11-21T12:04:36.091Z,9.31
2017-11-21T12:05:38.748Z,9.31
2017-11-21T12:06:41.389Z,9.27
2017-11-21T12:07:44.061Z,9.32
2017-11-21T12:08:46.785Z,9.30
2017-11-21T12:09:49.824Z,9.30
2017-11-21T12:10:52.490Z,9.30
2017-11-21T12:11:55.169Z,9.32
2017-11-21T12:12:57.896Z,9.35
2017-11-21T12:14:00.604Z,9.37
2017-11-21T12:15:03.244Z,9.38
2017-11-21T12:16:06.406Z,9.39
2017-11-21T12:17:09.036Z,9.37
2017-11-21T12:18:11.726Z,9.41
2017-11-21T12:19:14.439Z,9.40
2017-11-21T12:20:17.114Z,9.41
2017-11-21T12:21:19.753Z,9.43
2017-11-21T12:22:22.426Z,9.41
2017-11-21T12:23:25.103Z,9.41
2017-11-21T12:24:27.860Z,9.43
2017-11-21T12:25:30.544Z,9.40
2017-11-21T12:26:33.221Z,9.40
2017-11-21T12:27:36.178Z,9.47
2017-11-21T12:28:38.833Z,9.46
2017-11-21T12:29:41.467Z,9.46
2017-11-21T12:30:44.129Z,9.49
2017-11-21T12:31:46.763Z,9.53
2017-11-21T12:32:49.419Z,9.45
2017-11-21T12:33:52.538Z,9.44
2017-11-21T12:34:55.446Z,9.42
2017-11-21T12:35:58.052Z,9.40
2017-11-21T12:37:00.792Z,9.41
2017-11-21T12:38:03.444Z,9.41
2017-11-21T12:39:06.150Z,9.42
2017-11-21T12:40:09.143Z,9.41
2017-11-21T12:41:11.867Z,9.45
2017-11-21T12:42:14.597Z,9.41
2017-11-21T12:43:17.245Z,9.41
2017-11-21T12:44:19.853Z,9.43
2017-11-21T12:45:22.442Z,9.40
2017-11-21T12:46:25.613Z,9.41
2017-11-21T12:47:28.287Z,9.38
2017-11-21T12:48:30.992Z,9.36
2017-11-21T12:49:33.673Z,9.35
2017-11-21T12:50:36.334Z,9.37
2017-11-21T12:51:39.005Z,9.39
2017-11-21T12:52:42.026Z,9.40
2017-11-21T12:53:44.694Z,9.39
2017-11-21T12:54:47.332Z,9.39
2017-11-21T12:55:50.044Z,9.40
2017-11-21T12:56:53.283Z,9.39
2017-11-21T12:57:56.073Z,9.35
2017-11-21T12:58:58.991Z,9.35
2017-11-21T13:00:01.709Z,9.35
2017-11-21T13:01:04.390Z,9.33
2017-11-21T13:02:07.084Z,9.34
2017-11-21T13:03:09.722Z,9.34
2017-11-21T13:04:12.893Z,9.37
2017-11-21T13:05:15.645Z,9.37
2017-11-21T13:06:18.277Z,9.34
2017-11-21T13:07:21.001Z,9.36
2017-11-21T13:08:24.619Z,9.35
2017-11-21T13:09:27.603Z,9.36
2017-11-21T13:10:30.695Z,9.36
2017-11-21T13:11:33.489Z,9.39
2017-11-21T13:12:36.218Z,9.36
2017-11-21T13:13:38.903Z,9.36
2017-11-21T13:14:41.579Z,9.39
2017-11-21T13:15:44.266Z,9.40
2017-11-21T13:16:47.334Z,9.36
2017-11-21T13:17:49.961Z,9.41
2017-11-21T13:18:52.654Z,9.40
2017-11-21T13:19:55.305Z,9.37
2017-11-21T13:20:57.927Z,9.35
2017-11-21T13:22:00.555Z,9.36
2017-11-21T13:23:03.670Z,9.38
2017-11-21T13:24:06.402Z,9.41
2017-11-21T13:25:09.118Z,9.37
2017-11-21T13:26:11.788Z,9.36
2017-11-21T13:27:14.410Z,9.37
2017-11-21T13:28:17.105Z,9.38
2017-11-21T13:29:20.055Z,9.40
2017-11-21T13:30:22.834Z,9.40
2017-11-21T13:31:25.488Z,9.38
2017-11-21T13:32:28.194Z,9.40
2017-11-21T13:33:30.877Z,9.38
2017-11-21T13:34:33.670Z,9.38
2017-11-21T13:35:36.649Z,9.37
2017-11-21T13:36:39.328Z,9.38
2017-11-21T13:37:42.020Z,9.38
2017-11-21T13:38:44.800Z,9.38
2017-11-21T13:39:47.887Z,9.38
2017-11-21T13:40:50.603Z,9.37
2017-11-21T13:41:53.659Z,9.37
2017-11-21T13:42:56.351Z,9.37
2017-11-21T13:43:58.952Z,9.36
2017-11-21T13:45:01.644Z,9.35
2017-11-21T13:46:04.339Z,9.35
2017-11-21T13:47:06.975Z,9.37
2017-11-21T13:48:09.902Z,9.37
2017-11-21T13:49:12.590Z,9.35
2017-11-21T13:50:15.296Z,9.36
2017-11-21T13:51:18.012Z,9.36
2017-11-21T13:52:20.666Z,9.36
2017-11-21T13:53:23.326Z,9.36
2017-11-21T13:54:26.319Z,9.39
2017-11-21T13:55:28.934Z,9.37
2017-11-21T13:56:31.593Z,9.36
2017-11-21T13:57:34.343Z,9.38
2017-11-21T13:58:36.981Z,9.40
2017-11-21T13:59:39.977Z,9.36
2017-11-21T14:00:43.151Z,9.35
2017-11-21T14:01:45.823Z,9.37
2017-11-21T14:02:48.505Z,9.36
2017-11-21T14:03:51.141Z,9.37
2017-11-21T14:04:53.887Z,9.37
2017-11-21T14:05:56.550Z,9.38
2017-11-21T14:07:00.066Z,9.36
2017-11-21T14:08:02.770Z,9.38
2017-11-21T14:09:05.431Z,9.37
2017-11-21T14:10:08.064Z,9.35
2017-11-21T14:11:10.733Z,9.35
2017-11-21T14:12:13.378Z,9.34
2017-11-21T14:13:16.264Z,9.34
2017-11-21T14:14:18.882Z,9.36
2017-11-21T14:15:21.596Z,9.34
2017-11-21T14:16:24.209Z,9.36
2017-11-21T14:17:27.825Z,9.35
2017-11-21T14:18:30.838Z,9.36
2017-11-21T14:19:33.771Z,9.35
2017-11-21T14:20:36.481Z,9.35
2017-11-21T14:21:39.107Z,9.36
2017-11-21T14:22:41.838Z,9.37
2017-11-21T14:23:44.821Z,9.37
2017-11-21T14:24:47.475Z,9.35
2017-11-21T14:25:50.600Z,9.36
2017-11-21T14:26:53.237Z,9.36
2017-11-21T14:27:55.914Z,9.37